Avenel, New Jersey
Current Conditions -  °F | °C
As of 8:35 PM on Wednesday 22 Oct 2014 (Local Time) from KLDJ Reporting Station
Moderate Rain Moderate Rain  
Wind Chill: 56°   Ceiling: 3100
Heat Index: 56°   Visibility: 10mi
Dew Point: 52°   Wind: 13mph
Humidity: 87%   Direction: 350°N
Pressure: 29.8"   Gusts: 20mph
Location:  40.58°N, 74.28°W
Report Text: KLDJ 230035Z AUTO 35011G17KT 10SM RA SCT020 SCT024 OVC031 14/11 A2980 RMK AO2 P0001 T01350113
Loading
Personal Weather Stations






























Interactive Weather Map
Tropical Storm Tracking
New forecast layout! Learn more

10-Day Weather Forecast

Advertisements
Track Severe Weather on mobile